Time;durP1;ratioP1;P1;durP2;ratioP2;P2;SDS_P1;SDS_P2;PMS_P1;PMS_P2;Temp;Humidity;BMP_temperature;BMP_pressure;BME280_temperature;BME280_humidity;BME280_pressure;Samples;Min_cycle;Max_cycle;Signal;HPM_P1;HPM_P2
2022/12/30 00:01:33;;;;;;;3.97;2.42;;;;;;;16.54;62.53;96574.03;10419805;28;20128;-29
2022/12/30 00:06:33;;;;;;;4.77;2.50;;;;;;;16.57;61.63;96585.00;10398285;28;20052;-30
2022/12/30 00:11:34;;;;;;;6.33;2.50;;;;;;;16.58;61.50;96580.78;10398639;28;20368;-29
2022/12/30 00:38:01;;;;;;;4.47;2.42;;;;;;;16.54;61.56;96604.38;10399300;28;20030;-29
2022/12/30 00:43:10;;;;;;;4.20;2.33;;;;;;;16.54;61.94;96605.19;10395984;28;20249;-30
2022/12/30 00:58:48;;;;;;;5.07;1.80;;;;;;;16.54;61.80;96595.09;10413817;28;20038;-30
2022/12/30 01:03:48;;;;;;;3.97;1.93;;;;;;;16.54;61.78;96602.66;10398798;28;20044;-30
2022/12/30 01:08:48;;;;;;;3.67;1.77;;;;;;;16.54;61.92;96614.47;10395609;28;20275;-29
2022/12/30 01:13:49;;;;;;;4.47;2.10;;;;;;;16.58;61.91;96603.53;10393881;28;20086;-30
2022/12/30 01:18:49;;;;;;;5.00;2.20;;;;;;;16.58;62.09;96619.56;10389876;28;20044;-30
2022/12/30 01:23:50;;;;;;;5.07;2.20;;;;;;;16.57;61.86;96625.44;10392530;28;20045;-30
2022/12/30 01:28:51;;;;;;;7.72;1.90;;;;;;;16.54;61.62;96620.34;10394669;28;20030;-30
2022/12/30 01:33:51;;;;;;;5.40;1.93;;;;;;;16.56;61.58;96618.72;10400370;28;20041;-30
2022/12/30 01:38:51;;;;;;;3.93;1.93;;;;;;;16.56;61.80;96621.22;10403962;28;20381;-30
2022/12/30 01:43:52;;;;;;;3.45;2.05;;;;;;;16.54;61.95;96619.53;10396027;28;20033;-29
2022/12/30 01:48:55;;;;;;;4.80;1.77;;;;;;;16.53;61.93;96626.25;10403481;28;20030;-30
2022/12/30 01:53:59;;;;;;;5.55;2.15;;;;;;;16.52;61.68;96616.97;10401384;28;20036;-30
2022/12/30 01:59:14;;;;;;;4.07;2.00;;;;;;;16.53;62.02;96612.78;10398500;28;20054;-30
2022/12/30 02:04:20;;;;;;;4.60;2.03;;;;;;;16.51;61.97;96635.50;10396997;28;20521;-30
2022/12/30 02:09:21;;;;;;;3.93;2.13;;;;;;;16.51;61.84;96638.03;10402853;28;20526;-30
2022/12/30 02:14:22;;;;;;;3.25;1.77;;;;;;;16.54;61.63;96637.22;10400424;28;20124;-29
2022/12/30 02:19:59;;;;;;;3.28;1.98;;;;;;;16.51;61.83;96635.50;10401534;28;20087;-30
2022/12/30 02:25:21;;;;;;;6.10;1.57;;;;;;;16.49;61.88;96631.28;10394950;28;20034;-30
2022/12/30 02:30:53;;;;;;;3.85;1.50;;;;;;;16.54;61.86;96635.50;10392923;28;20551;-29
2022/12/30 02:36:12;;;;;;;2.50;1.60;;;;;;;16.53;62.47;96646.47;10399543;28;20049;-31
2022/12/30 02:46:45;;;;;;;;;;;;;;;16.55;61.40;96652.38;10398716;27;20112;-30
2022/12/30 02:57:24;;;;;;;4.25;1.73;;;;;;;16.53;61.36;96645.63;10404150;28;20033;-31
2022/12/30 03:08:15;;;;;;;3.85;1.60;;;;;;;16.53;62.15;96641.41;10396204;28;20032;-29
2022/12/30 03:13:22;;;;;;;2.67;1.50;;;;;;;16.51;61.59;96629.59;10398037;28;20052;-29
2022/12/30 03:18:24;;;;;;;4.70;2.05;;;;;;;16.50;61.87;96628.78;10385215;28;20414;-30
2022/12/30 03:28:51;;;;;;;3.63;1.60;;;;;;;16.52;61.76;96623.72;10391561;28;20436;-29
2022/12/30 03:33:52;;;;;;;2.88;1.58;;;;;;;16.50;61.63;96618.66;10393688;28;20048;-29
2022/12/30 03:39:09;;;;;;;3.72;1.60;;;;;;;16.53;61.65;96613.63;10395743;28;20025;-30
2022/12/30 03:44:11;;;;;;;3.20;1.48;;;;;;;16.52;61.72;96614.44;10394180;28;20442;-30
2022/12/30 03:49:12;;;;;;;3.17;1.80;;;;;;;16.53;61.67;96603.50;10389952;28;20041;-31
2022/12/30 03:54:12;;;;;;;2.28;1.38;;;;;;;16.51;61.50;96595.06;10396362;28;20029;-30
2022/12/30 03:59:12;;;;;;;2.88;1.50;;;;;;;16.57;61.73;96607.75;10419372;28;20041;-30
2022/12/30 04:04:13;;;;;;;3.37;1.70;;;;;;;16.58;61.59;96606.06;10396233;28;20029;-29
2022/12/30 04:09:13;;;;;;;2.77;1.70;;;;;;;16.58;61.43;96608.59;10395682;28;20037;-30
2022/12/30 04:14:13;;;;;;;1.93;1.10;;;;;;;16.56;61.56;96598.50;10393238;28;20326;-29
2022/12/30 04:19:14;;;;;;;3.17;1.60;;;;;;;16.52;61.70;96591.72;10390309;28;20465;-29
2022/12/30 04:24:14;;;;;;;3.55;1.55;;;;;;;16.51;61.58;96584.97;10394004;28;20048;-30
2022/12/30 04:29:15;;;;;;;3.85;1.60;;;;;;;16.51;62.03;96589.16;10395713;28;20033;-30
2022/12/30 04:34:15;;;;;;;2.95;1.13;;;;;;;16.49;61.99;96584.13;10386346;28;20037;-29
2022/12/30 04:39:16;;;;;;;3.65;1.27;;;;;;;16.51;62.10;96584.97;10392678;28;20038;-29
2022/12/30 04:44:16;;;;;;;2.30;1.00;;;;;;;16.45;62.25;96579.88;10390204;28;20030;-29
2022/12/30 04:49:17;;;;;;;2.13;1.33;;;;;;;16.48;62.14;96576.53;10467051;28;20031;-29
2022/12/30 04:54:17;;;;;;;3.27;1.43;;;;;;;16.50;61.86;96569.78;10405146;28;20033;-29
2022/12/30 04:59:17;;;;;;;4.17;1.20;;;;;;;16.54;61.68;96567.28;10418614;28;20558;-29
2022/12/30 05:04:18;;;;;;;2.75;1.38;;;;;;;16.56;61.08;96568.16;10396583;28;20062;-30
2022/12/30 05:09:18;;;;;;;2.50;1.17;;;;;;;16.56;61.54;96552.13;10401999;28;20189;-32
2022/12/30 05:14:19;;;;;;;2.57;1.17;;;;;;;16.61;61.12;96551.31;10404641;28;20296;-29
2022/12/30 05:19:19;;;;;;;1.60;0.83;;;;;;;16.67;60.96;96542.91;10402791;28;20300;-30
2022/12/30 05:29:38;;;;;;;2.53;1.40;;;;;;;16.67;60.71;96551.34;10406131;28;20033;-29
2022/12/30 05:34:38;;;;;;;2.73;1.20;;;;;;;16.68;60.65;96563.16;10403307;28;20052;-29
2022/12/30 05:39:39;;;;;;;3.97;1.63;;;;;;;16.67;60.34;96561.47;10407219;28;20025;-29
2022/12/30 05:44:39;;;;;;;2.08;1.35;;;;;;;16.72;60.68;96558.97;10400510;28;20040;-30
2022/12/30 05:49:39;;;;;;;3.63;1.10;;;;;;;16.74;59.94;96568.25;10400671;28;20049;-29
2022/12/30 05:54:40;;;;;;;1.80;0.90;;;;;;;16.74;60.75;96563.19;10402381;28;20157;-30
2022/12/30 05:59:40;;;;;;;2.80;1.50;;;;;;;16.73;60.32;96564.84;10432038;28;20971;-30
2022/12/30 06:04:41;;;;;;;1.57;0.97;;;;;;;16.67;60.42;96566.53;10403939;28;20044;-30
2022/12/30 06:09:41;;;;;;;2.83;1.67;;;;;;;16.69;60.62;96582.53;10404789;28;20036;-29
2022/12/30 06:14:41;;;;;;;4.50;1.80;;;;;;;16.70;60.82;96576.63;10399846;28;20041;-29
2022/12/30 06:19:42;;;;;;;3.23;1.43;;;;;;;16.69;60.56;96580.00;10400304;28;20030;-30
2022/12/30 06:24:42;;;;;;;3.05;1.20;;;;;;;16.68;60.92;96583.38;10399503;28;20048;-30
2022/12/30 06:29:42;;;;;;;4.33;1.20;;;;;;;16.67;60.91;96584.22;10400865;28;20037;-29
2022/12/30 06:34:43;;;;;;;2.07;1.37;;;;;;;16.67;60.88;96580.81;10402387;28;20700;-29
2022/12/30 06:39:43;;;;;;;1.83;1.10;;;;;;;16.67;61.12;96571.56;10401098;28;20041;-30
2022/12/30 06:44:44;;;;;;;1.30;1.10;;;;;;;16.65;60.98;96583.38;10401450;28;20287;-29
2022/12/30 06:49:44;;;;;;;2.23;1.27;;;;;;;16.64;61.15;96581.69;10395936;28;20041;-29
2022/12/30 06:54:44;;;;;;;3.85;1.17;;;;;;;16.63;61.26;96582.50;10397009;28;20550;-29
2022/12/30 06:59:45;;;;;;;1.80;1.03;;;;;;;16.60;60.96;96579.97;10401166;28;20162;-30
2022/12/30 07:04:45;;;;;;;2.23;1.10;;;;;;;16.59;60.80;96575.75;10398700;28;20773;-29
2022/12/30 07:09:45;;;;;;;2.10;1.00;;;;;;;16.58;61.34;96576.59;10400359;28;20525;-30
2022/12/30 07:14:46;;;;;;;2.37;0.80;;;;;;;16.58;61.29;96581.66;10396052;28;20503;-29
2022/12/30 07:19:49;;;;;;;2.50;1.00;;;;;;;16.56;61.23;96562.25;10398244;28;20029;-31
2022/12/30 07:24:49;;;;;;;1.50;1.10;;;;;;;16.56;61.15;96557.19;10395845;28;20037;-30
2022/12/30 07:29:50;;;;;;;2.10;1.00;;;;;;;16.49;61.29;96556.31;10394028;28;20048;-29
2022/12/30 07:34:50;;;;;;;3.03;1.02;;;;;;;16.48;61.33;96574.00;10395170;28;20033;-29
2022/12/30 07:39:51;;;;;;;2.70;1.53;;;;;;;16.51;60.95;96574.88;10395939;28;20041;-30
2022/12/30 07:44:51;;;;;;;1.60;0.90;;;;;;;16.49;60.88;96568.97;10394619;28;20295;-29
2022/12/30 07:49:51;;;;;;;1.97;1.00;;;;;;;16.51;61.19;96568.94;10396060;28;20085;-30
2022/12/30 07:54:52;;;;;;;1.93;0.87;;;;;;;16.52;60.91;96566.44;10395813;28;20045;-29
2022/12/30 07:59:52;;;;;;;2.28;1.20;;;;;;;16.54;60.85;96558.88;10416204;28;20034;-29
2022/12/30 08:04:53;;;;;;;2.10;0.80;;;;;;;16.56;60.85;96558.06;10398628;28;20145;-30
2022/12/30 08:09:53;;;;;;;4.38;0.90;;;;;;;16.51;61.20;96549.59;10399536;28;20052;-30
2022/12/30 08:14:54;;;;;;;3.70;1.03;;;;;;;16.52;60.72;96555.50;10404691;28;20399;-29
2022/12/30 08:19:54;;;;;;;1.20;0.50;;;;;;;16.49;60.82;96546.22;10395584;28;20620;-29
2022/12/30 08:24:54;;;;;;;1.45;0.85;;;;;;;16.45;60.95;96536.91;10395132;28;20026;-29
2022/12/30 08:29:55;;;;;;;2.33;1.00;;;;;;;16.46;60.78;96536.06;10396631;28;20053;-29
2022/12/30 08:34:55;;;;;;;2.70;0.93;;;;;;;16.47;60.97;96529.34;10400670;28;20288;-31
2022/12/30 08:39:55;;;;;;;3.50;1.10;;;;;;;16.42;60.11;96516.69;10396995;28;20029;-29
2022/12/30 08:44:56;;;;;;;1.57;1.00;;;;;;;16.46;60.38;96510.81;10392216;28;20034;-30
2022/12/30 08:49:56;;;;;;;6.03;1.30;;;;;;;16.48;60.01;96488.94;10394988;28;20082;-29
2022/12/30 08:54:56;;;;;;;1.73;1.30;;;;;;;16.51;59.25;96486.41;10395460;28;20487;-29
2022/12/30 08:59:57;;;;;;;4.73;2.00;;;;;;;16.52;59.09;96480.53;10397585;28;20032;-29
2022/12/30 09:04:57;;;;;;;12.40;3.57;;;;;;;16.53;59.11;96472.09;10396163;28;20054;-31
2022/12/30 09:09:58;;;;;;;14.67;4.73;;;;;;;16.52;59.40;96470.41;10397107;28;20040;-31
2022/12/30 09:14:58;;;;;;;22.37;9.07;;;;;;;16.54;59.65;96463.69;10394110;28;20783;-31
2022/12/30 09:19:58;;;;;;;27.47;12.43;;;;;;;16.53;60.02;96462.00;10388489;28;20040;-30
2022/12/30 09:24:58;;;;;;;25.90;9.23;;;;;;;16.62;59.15;96469.59;10393418;28;20117;-31
2022/12/30 09:29:59;;;;;;;30.23;11.83;;;;;;;16.66;59.15;96467.94;10396889;28;20507;-30
2022/12/30 09:34:59;;;;;;;26.50;11.70;;;;;;;16.62;59.73;96439.28;10392933;28;20034;-30
2022/12/30 09:39:59;;;;;;;27.30;13.73;;;;;;;16.61;58.23;96442.66;10393234;28;20048;-31
2022/12/30 09:45:06;;;;;;;28.47;13.67;;;;;;;16.64;58.73;96430.03;10392615;28;20133;-30
2022/12/30 09:50:18;;;;;;;28.42;13.43;;;;;;;16.69;58.76;96432.56;10392601;28;20108;-30
2022/12/30 09:55:29;;;;;;;32.42;13.18;;;;;;;16.70;58.98;96427.50;10396485;28;20042;-31
2022/12/30 10:00:33;;;;;;;23.48;11.73;;;;;;;16.70;59.26;96414.03;10402962;28;20120;-32
2022/12/30 10:05:36;;;;;;;27.88;12.25;;;;;;;16.69;59.11;96403.06;10400067;28;20118;-31
2022/12/30 10:10:41;;;;;;;23.63;12.32;;;;;;;16.62;59.21;96371.03;10401489;28;20037;-31
2022/12/30 10:15:55;;;;;;;22.35;11.18;;;;;;;16.71;58.92;96378.63;10396954;28;20542;-33
2022/12/30 10:21:01;;;;;;;20.08;10.43;;;;;;;16.70;59.07;96369.38;10396204;28;20033;-31
2022/12/30 10:26:12;;;;;;;18.02;10.70;;;;;;;16.70;58.86;96373.59;10396852;28;20051;-30
2022/12/30 10:31:19;;;;;;;28.52;11.30;;;;;;;16.66;59.38;96367.69;10399966;28;20065;-31
2022/12/30 10:36:27;;;;;;;27.83;12.35;;;;;;;16.73;59.59;96371.91;10398354;28;20053;-30
2022/12/30 10:42:14;;;;;;;28.92;13.60;;;;;;;16.68;60.15;96363.47;10406023;28;20029;-30
2022/12/30 10:47:23;;;;;;;29.50;13.47;;;;;;;16.77;60.34;96368.53;10363498;28;20053;-30
2022/12/30 10:52:25;;;;;;;26.45;13.77;;;;;;;16.78;60.80;96366.03;10397074;28;20411;-30
2022/12/30 10:57:33;;;;;;;30.63;13.68;;;;;;;16.84;60.89;96353.38;10414547;28;20031;-30
2022/12/30 11:02:38;;;;;;;36.92;12.90;;;;;;;16.85;61.03;96341.56;10399177;28;20076;-31
2022/12/30 11:07:54;;;;;;;31.63;13.88;;;;;;;16.85;60.54;96339.06;10392965;28;20037;-31
2022/12/30 11:18:31;;;;;;;32.50;13.73;;;;;;;16.86;60.73;96345.78;10401872;28;20072;-30
2022/12/30 11:23:37;;;;;;;34.08;14.32;;;;;;;16.86;59.91;96351.69;10394260;28;20037;-31
2022/12/30 11:28:48;;;;;;;28.37;14.03;;;;;;;16.87;60.75;96340.75;10396733;28;20033;-30
2022/12/30 11:33:54;;;;;;;33.60;13.25;;;;;;;16.90;60.64;96343.25;10399511;28;20037;-31
2022/12/30 11:38:57;;;;;;;28.67;13.43;;;;;;;16.91;61.04;96318.84;10396066;28;20032;-31
2022/12/30 11:44:00;;;;;;;26.90;13.38;;;;;;;16.92;60.34;96313.75;10401465;28;20120;-31
2022/12/30 11:49:04;;;;;;;27.85;13.60;;;;;;;16.93;60.38;96300.28;10398491;28;20158;-31
2022/12/30 11:54:13;;;;;;;29.85;13.77;;;;;;;16.88;60.91;96284.28;10395697;28;20435;-30
2022/12/30 11:59:16;;;;;;;26.20;13.57;;;;;;;16.95;60.82;96291.00;10414139;28;20410;-30
2022/12/30 12:04:35;;;;;;;32.58;14.77;;;;;;;16.92;61.94;96285.94;10398668;28;20616;-31
2022/12/30 12:09:43;;;;;;;25.10;12.70;;;;;;;16.94;61.80;96279.22;10392549;28;20110;-32
2022/12/30 12:14:55;;;;;;;31.40;13.50;;;;;;;16.95;60.86;96278.38;10395613;28;20037;-31
2022/12/30 12:20:03;;;;;;;27.80;13.15;;;;;;;16.91;61.28;96278.38;10396099;28;20050;-30
2022/12/30 12:25:17;;;;;;;29.30;14.27;;;;;;;16.93;61.58;96271.63;10397700;28;20041;-31
2022/12/30 12:30:19;;;;;;;29.30;15.20;;;;;;;16.90;61.80;96253.94;10390601;28;20034;-30
2022/12/30 12:35:25;;;;;;;27.38;13.48;;;;;;;16.92;62.25;96244.66;10393802;28;20041;-31
2022/12/30 12:40:53;;;;;;;29.20;12.83;;;;;;;16.89;62.08;96234.56;10396028;28;20038;-30
2022/12/30 12:46:08;;;;;;;24.08;12.77;;;;;;;16.90;61.23;96218.53;10388620;28;20272;-31
2022/12/30 12:51:17;;;;;;;23.80;11.52;;;;;;;16.91;61.28;96212.63;10391504;28;20036;-31
2022/12/30 12:56:36;;;;;;;23.30;11.40;;;;;;;16.90;61.48;96200.84;10393417;28;20059;-30
2022/12/30 13:01:42;;;;;;;28.80;12.30;;;;;;;16.91;62.20;96205.06;10415623;28;20033;-31
2022/12/30 13:07:11;;;;;;;25.83;11.63;;;;;;;16.97;60.36;96197.44;10398383;28;20037;-31
2022/12/30 13:12:26;;;;;;;26.98;11.82;;;;;;;17.01;62.29;96189.00;10396638;28;20086;-31
2022/12/30 13:17:35;;;;;;;30.40;11.52;;;;;;;17.06;63.33;96177.22;10396817;28;20042;-30
2022/12/30 13:22:37;;;;;;;24.90;11.18;;;;;;;17.05;63.43;96163.72;10385515;28;20038;-31
2022/12/30 13:27:39;;;;;;;23.13;10.40;;;;;;;17.03;61.02;96167.94;10398173;28;20103;-30
2022/12/30 13:33:02;;;;;;;22.65;9.18;;;;;;;16.98;60.52;96174.69;10404178;28;20121;-30
2022/12/30 13:38:17;;;;;;;18.83;8.57;;;;;;;16.96;59.34;96176.38;10400288;28;20520;-30
2022/12/30 13:43:29;;;;;;;19.13;9.65;;;;;;;16.94;61.51;96182.28;10396813;28;20048;-30
2022/12/30 13:48:33;;;;;;;13.25;6.03;;;;;;;16.89;58.26;96174.72;10400750;28;20034;-31
2022/12/30 13:53:46;;;;;;;19.75;6.93;;;;;;;16.88;58.62;96167.13;10392061;28;20060;-31
2022/12/30 13:58:52;;;;;;;21.40;7.57;;;;;;;16.82;57.86;96172.22;10418816;27;20563;-31
2022/12/30 14:04:11;;;;;;;21.90;6.80;;;;;;;16.73;58.64;96136.84;10432084;27;20460;-31
2022/12/30 14:09:31;;;;;;;16.08;6.88;;;;;;;16.77;57.01;96152.00;10421797;27;20498;-31
2022/12/30 14:14:35;;;;;;;13.75;7.55;;;;;;;16.78;57.18;96160.41;10421193;27;20509;-32
2022/12/30 14:19:48;;;;;;;10.88;6.15;;;;;;;16.80;56.84;96158.72;10419918;27;20037;-31
2022/12/30 14:24:49;;;;;;;20.45;7.38;;;;;;;16.81;57.95;96155.38;10409834;27;20128;-31
2022/12/30 14:30:01;;;;;;;24.08;8.82;;;;;;;16.78;60.80;96151.16;10453777;27;20029;-31
2022/12/30 14:35:01;;;;;;;15.65;9.32;;;;;;;16.78;60.54;96150.31;10410786;27;20507;-30
2022/12/30 14:40:29;;;;;;;11.32;6.57;;;;;;;16.75;58.95;96165.47;10441129;27;20037;-30
2022/12/30 14:45:29;;;;;;;;;;;;;;;16.81;56.10;96165.47;10424089;27;20414;-30
2022/12/30 14:50:31;;;;;;;13.40;5.27;;;;;;;16.79;57.19;96154.50;10405862;27;19913;-32
2022/12/30 14:55:34;;;;;;;15.00;6.93;;;;;;;16.78;58.16;96158.75;10407528;27;20498;-30
2022/12/30 15:00:36;;;;;;;13.50;6.18;;;;;;;16.73;57.12;96145.25;10437204;27;20042;-30
2022/12/30 15:05:49;;;;;;;13.80;5.97;;;;;;;16.79;57.96;96151.97;10430808;27;20537;-30
2022/12/30 15:10:50;;;;;;;12.48;6.85;;;;;;;16.80;56.66;96159.56;10463936;27;20080;-31
2022/12/30 15:15:56;;;;;;;9.23;5.75;;;;;;;16.82;56.66;96177.28;10397298;28;20087;-32
2022/12/30 15:20:56;;;;;;;11.93;6.97;;;;;;;16.80;55.39;96169.69;10452675;27;20037;-31
2022/12/30 15:26:00;;;;;;;9.70;5.47;;;;;;;16.80;55.78;96173.88;10396416;28;20495;-31
2022/12/30 15:31:01;;;;;;;9.63;5.43;;;;;;;16.79;56.75;96179.78;10418458;27;20041;-30
2022/12/30 15:36:01;;;;;;;11.63;5.53;;;;;;;16.79;54.64;96169.66;10397397;28;20543;-31
2022/12/30 15:41:02;;;;;;;11.18;6.20;;;;;;;16.74;55.15;96209.31;10399214;28;20033;-30
2022/12/30 15:46:05;;;;;;;26.55;9.63;;;;;;;16.89;59.42;96204.22;10394221;28;20043;-31
2022/12/30 15:51:35;;;;;;;22.65;11.38;;;;;;;16.96;61.33;96216.84;10419205;27;20030;-30
2022/12/30 15:56:36;;;;;;;16.98;7.22;;;;;;;16.97;55.84;96220.19;10450659;27;20166;-30
2022/12/30 16:01:39;;;;;;;18.27;8.10;;;;;;;16.97;55.64;96205.03;10396257;28;20037;-31
2022/12/30 16:06:41;;;;;;;15.57;7.03;;;;;;;16.96;55.05;96205.88;10445242;27;20034;-30
2022/12/30 16:11:50;;;;;;;18.20;9.35;;;;;;;16.96;55.22;96205.88;10472164;27;20033;-30
2022/12/30 16:16:51;;;;;;;11.23;6.28;;;;;;;16.90;55.09;96209.25;10411976;27;20041;-31
2022/12/30 16:22:01;;;;;;;10.97;6.23;;;;;;;16.94;54.65;96207.56;10445998;27;20038;-30
2022/12/30 16:27:15;;;;;;;14.00;7.20;;;;;;;16.96;55.89;96210.94;10396977;28;20045;-30
2022/12/30 16:32:24;;;;;;;14.70;7.63;;;;;;;16.96;55.10;96210.94;10398197;28;20042;-30
2022/12/30 16:37:29;;;;;;;11.45;7.00;;;;;;;16.97;54.37;96222.72;10394067;28;20045;-30
2022/12/30 16:42:30;;;;;;;12.90;6.82;;;;;;;16.97;54.12;96198.28;10394960;28;20033;-31
2022/12/30 16:47:30;;;;;;;15.20;7.23;;;;;;;16.98;54.83;96206.72;10398154;28;20029;-31
2022/12/30 16:52:32;;;;;;;11.67;7.13;;;;;;;16.98;54.37;96219.38;10393437;28;20026;-30
2022/12/30 16:57:33;;;;;;;15.40;7.07;;;;;;;16.95;54.38;96209.25;10394031;28;20041;-30
2022/12/30 17:02:33;;;;;;;22.30;11.30;;;;;;;17.04;61.30;96222.72;10397937;28;20033;-30
2022/12/30 17:07:34;;;;;;;19.08;10.15;;;;;;;17.07;61.54;96206.72;10402248;28;20037;-30
2022/12/30 17:12:36;;;;;;;14.47;8.33;;;;;;;17.02;57.58;96215.97;10401971;28;20039;-32
2022/12/30 17:17:37;;;;;;;13.45;7.03;;;;;;;17.03;55.61;96222.72;10399330;28;20386;-30
2022/12/30 17:22:37;;;;;;;12.93;6.80;;;;;;;17.03;54.79;96227.78;10397557;28;20402;-30
2022/12/30 17:27:37;;;;;;;11.70;6.28;;;;;;;17.04;53.89;96242.94;10404666;28;20053;-31
2022/12/30 17:32:41;;;;;;;14.67;6.70;;;;;;;17.03;54.03;96233.69;10403571;28;20037;-31
2022/12/30 17:37:41;;;;;;;13.95;7.63;;;;;;;17.00;54.29;96248.84;10398796;28;20037;-30
2022/12/30 17:42:43;;;;;;;13.87;7.13;;;;;;;17.01;54.20;96254.75;10403297;28;20055;-31
2022/12/30 17:47:47;;;;;;;11.88;6.45;;;;;;;17.01;54.50;96280.91;10399711;28;20030;-30
2022/12/30 17:52:49;;;;;;;12.20;6.68;;;;;;;17.02;53.22;96290.16;10398492;28;20037;-31
2022/12/30 17:57:50;;;;;;;12.52;5.88;;;;;;;17.03;53.83;96291.00;10435130;28;20048;-30
2022/12/30 18:02:50;;;;;;;11.57;6.67;;;;;;;17.03;54.03;96298.59;10401554;28;20071;-31
2022/12/30 18:07:50;;;;;;;10.70;6.40;;;;;;;17.04;53.78;96285.09;10402188;28;20483;-30
2022/12/30 18:12:51;;;;;;;13.33;6.53;;;;;;;17.04;53.66;96287.63;10400426;28;20338;-31
2022/12/30 18:17:51;;;;;;;12.17;6.87;;;;;;;17.04;57.71;96273.31;10396855;28;20288;-30
2022/12/30 18:22:52;;;;;;;14.75;8.75;;;;;;;17.08;62.21;96295.19;10396791;28;20065;-31
2022/12/30 18:27:52;;;;;;;17.63;8.13;;;;;;;17.09;61.83;96296.06;10399770;28;20097;-30
2022/12/30 18:32:52;;;;;;;11.33;7.27;;;;;;;17.07;56.35;96321.34;10396736;28;20041;-31
2022/12/30 18:37:53;;;;;;;14.40;6.57;;;;;;;17.06;55.26;96294.38;10398131;28;20029;-31
2022/12/30 18:42:53;;;;;;;10.50;6.43;;;;;;;17.06;55.03;96291.84;10398196;28;20077;-31
2022/12/30 18:47:53;;;;;;;9.73;6.00;;;;;;;17.04;53.58;96306.19;10396100;28;20053;-30
2022/12/30 18:52:54;;;;;;;10.03;5.37;;;;;;;17.04;53.93;96302.78;10396626;28;20677;-30
2022/12/30 18:57:54;;;;;;;10.90;5.67;;;;;;;17.03;53.19;96346.63;10421038;28;20353;-31
2022/12/30 19:02:55;;;;;;;11.30;5.43;;;;;;;17.02;53.37;96338.22;10399409;28;20163;-32
2022/12/30 19:07:55;;;;;;;8.27;5.30;;;;;;;17.03;53.59;96369.38;10399605;28;20099;-30
2022/12/30 19:12:55;;;;;;;9.43;6.17;;;;;;;17.02;53.72;96343.28;10397283;28;20033;-31
2022/12/30 19:17:56;;;;;;;9.30;5.70;;;;;;;17.03;53.39;96354.22;10401171;28;20288;-30
2022/12/30 19:22:56;;;;;;;8.43;5.30;;;;;;;17.03;53.68;96361.81;10394058;28;20040;-30
2022/12/30 19:27:57;;;;;;;8.53;5.60;;;;;;;17.04;53.35;96376.13;10397832;28;20049;-30
2022/12/30 19:32:57;;;;;;;10.70;5.95;;;;;;;17.02;53.70;96365.19;10399494;28;20038;-31
2022/12/30 19:37:58;;;;;;;11.50;6.07;;;;;;;17.06;61.78;96374.47;10396378;28;20034;-31
2022/12/30 19:42:58;;;;;;;10.95;6.50;;;;;;;17.08;62.20;96377.84;10403063;28;20026;-30
2022/12/30 19:47:58;;;;;;;10.77;6.30;;;;;;;17.07;59.33;96383.75;10395155;28;20033;-31
2022/12/30 19:52:59;;;;;;;9.00;5.57;;;;;;;17.05;54.53;96388.78;10396442;28;20041;-31
2022/12/30 19:57:59;;;;;;;10.45;5.57;;;;;;;17.04;54.30;96398.88;10405341;28;20108;-30
2022/12/30 20:03:00;;;;;;;8.90;5.13;;;;;;;17.04;54.23;96389.63;10397928;28;20029;-32
2022/12/30 20:08:00;;;;;;;8.20;4.78;;;;;;;16.97;53.09;96390.47;10399275;28;20033;-30
2022/12/30 20:13:00;;;;;;;8.87;5.40;;;;;;;17.04;54.58;96393.84;10400661;28;20064;-30
2022/12/30 20:18:01;;;;;;;9.53;6.13;;;;;;;17.05;53.35;96382.88;10394994;28;20291;-30
2022/12/30 20:23:01;;;;;;;9.23;5.00;;;;;;;17.04;53.68;96376.13;10391873;28;20116;-31
2022/12/30 20:28:01;;;;;;;9.40;6.00;;;;;;;17.04;53.97;96401.41;10406448;28;20058;-30
2022/12/30 20:33:04;;;;;;;9.43;5.50;;;;;;;17.03;54.06;96392.16;10398107;28;20026;-30
2022/12/30 20:38:04;;;;;;;8.00;5.13;;;;;;;17.05;54.22;96405.63;10393370;28;20065;-31
2022/12/30 20:43:05;;;;;;;9.57;5.10;;;;;;;17.04;54.00;96377.00;10393923;28;20104;-32
2022/12/30 20:48:06;;;;;;;7.63;4.97;;;;;;;17.01;53.96;96396.38;10396535;28;20026;-30
2022/12/30 20:53:06;;;;;;;9.10;5.10;;;;;;;17.02;53.70;96403.13;10394063;28;20393;-30
2022/12/30 20:58:07;;;;;;;8.80;5.10;;;;;;;17.07;62.73;96427.56;10395000;28;20030;-30
2022/12/30 21:03:08;;;;;;;7.72;5.65;;;;;;;17.06;62.54;96420.81;10395372;28;20320;-30
2022/12/30 21:08:08;;;;;;;8.77;5.18;;;;;;;17.07;57.20;96441.91;10397204;28;20037;-30
2022/12/30 21:13:08;;;;;;;6.80;4.93;;;;;;;17.06;54.77;96425.03;10397255;28;20050;-30
2022/12/30 21:18:09;;;;;;;6.63;4.27;;;;;;;17.07;54.81;96436.84;10392491;28;20125;-31
2022/12/30 21:23:09;;;;;;;6.90;4.77;;;;;;;17.07;54.47;96452.03;10390396;28;20045;-31
2022/12/30 21:28:10;;;;;;;7.38;4.50;;;;;;;17.05;54.57;96436.84;10394744;28;20064;-31
2022/12/30 21:33:11;;;;;;;9.80;5.78;;;;;;;17.03;54.21;96446.13;10396404;28;20682;-30
2022/12/30 22:04:55;;;;;;;5.10;3.83;;;;;;;17.05;53.88;96539.66;10396264;28;20116;-30
2022/12/30 22:09:55;;;;;;;6.27;3.50;;;;;;;17.05;53.99;96539.66;10402555;28;20539;-30
2022/12/30 22:14:56;;;;;;;6.20;3.80;;;;;;;17.09;62.26;96551.50;10397850;28;20070;-31
2022/12/30 22:19:56;;;;;;;8.70;4.05;;;;;;;17.11;61.10;96549.81;10401312;28;20545;-31
2022/12/30 22:24:57;;;;;;;6.35;4.03;;;;;;;17.05;63.23;96527.88;10398885;28;20040;-31
2022/12/30 22:29:57;;;;;;;7.97;4.23;;;;;;;16.99;58.20;96552.31;10408994;28;20029;-30
2022/12/30 22:34:57;;;;;;;5.50;3.53;;;;;;;17.06;56.53;96561.63;10399672;28;20109;-31
2022/12/30 22:39:58;;;;;;;4.73;3.43;;;;;;;17.07;57.79;96583.53;10398400;28;20041;-31
2022/12/30 22:44:58;;;;;;;9.77;4.03;;;;;;;17.04;56.60;96584.38;10387116;28;20038;-31
2022/12/30 22:49:58;;;;;;;10.67;3.83;;;;;;;17.01;57.75;96574.25;10394131;28;20317;-31
2022/12/30 22:54:59;;;;;;;7.87;3.73;;;;;;;17.05;55.58;96575.06;10392045;28;20045;-31
2022/12/30 22:59:59;;;;;;;5.32;3.65;;;;;;;17.04;57.47;96583.50;10397914;28;20056;-31
2022/12/30 23:05:00;;;;;;;10.82;4.10;;;;;;;16.99;57.29;96557.38;10393990;28;20063;-31
2022/12/30 23:10:03;;;;;;;6.60;3.70;;;;;;;16.95;58.56;96548.09;10394671;28;20472;-31
2022/12/30 23:20:23;;;;;;;6.68;3.28;;;;;;;17.02;58.30;96575.94;10400526;28;20081;-30
2022/12/30 23:25:23;;;;;;;7.50;3.77;;;;;;;16.97;55.13;96580.13;10393744;28;20120;-30
2022/12/30 23:30:24;;;;;;;9.67;4.33;;;;;;;17.05;62.69;96605.44;10394763;28;20036;-31
2022/12/30 23:35:24;;;;;;;4.90;3.40;;;;;;;17.06;63.44;96602.09;10401095;28;20121;-30
2022/12/30 23:40:24;;;;;;;10.33;3.40;;;;;;;17.08;62.32;96608.00;10396044;28;20041;-30
2022/12/30 23:45:25;;;;;;;6.40;3.37;;;;;;;17.05;56.77;96625.66;10398916;28;20048;-31
2022/12/30 23:50:25;;;;;;;5.65;3.45;;;;;;;17.03;55.30;96617.22;10394369;28;20030;-30
2022/12/30 23:55:26;;;;;;;5.43;3.17;;;;;;;17.02;54.27;96618.06;10396816;28;20502;-31
